createdAt,value
2018-05-16T00:00:23.838Z,95845.73
2018-05-16T00:02:53.392Z,95840.86
2018-05-16T00:05:22.920Z,95837.38
2018-05-16T00:07:52.846Z,95838.73
2018-05-16T00:10:22.398Z,95846.17
2018-05-16T00:12:51.963Z,95844.41
2018-05-16T00:15:21.516Z,95842.65
2018-05-16T00:17:51.037Z,95844.97
2018-05-16T00:20:20.571Z,95846.70
2018-05-16T00:22:50.500Z,95847.31
2018-05-16T00:25:20.174Z,95839.33
2018-05-16T00:27:49.694Z,95840.11
2018-05-16T00:30:19.629Z,95849.87
2018-05-16T00:32:49.158Z,95838.58
2018-05-16T00:35:18.686Z,95845.19
2018-05-16T00:37:48.271Z,95851.02
2018-05-16T00:40:17.786Z,95847.53
2018-05-16T00:42:47.302Z,95838.56
2018-05-16T00:45:16.832Z,95851.62
2018-05-16T00:47:46.374Z,95848.30
2018-05-16T00:50:15.906Z,95854.13
2018-05-16T00:52:45.434Z,95859.20
2018-05-16T00:55:14.984Z,95861.34
2018-05-16T00:57:44.922Z,95858.22
2018-05-16T01:00:14.430Z,95857.45
2018-05-16T01:02:43.968Z,95861.14
2018-05-16T01:05:13.685Z,95863.47
2018-05-16T01:07:43.238Z,95856.99
2018-05-16T01:10:12.776Z,95854.27
2018-05-16T01:12:42.317Z,95848.23
2018-05-16T01:15:11.855Z,95848.01
2018-05-16T01:17:41.380Z,95850.18
2018-05-16T01:20:11.607Z,95849.59
2018-05-16T01:22:41.146Z,95847.47
2018-05-16T01:25:10.688Z,95840.66
2018-05-16T01:27:40.249Z,95842.19
2018-05-16T01:30:09.784Z,95844.55
2018-05-16T01:32:39.306Z,95844.91
2018-05-16T01:35:09.250Z,95844.11
2018-05-16T01:37:38.761Z,95840.41
2018-05-16T01:40:08.292Z,95839.24
2018-05-16T01:42:37.846Z,95835.34
2018-05-16T01:45:07.773Z,95834.34
2018-05-16T01:47:37.298Z,95835.88
2018-05-16T01:50:06.838Z,95830.05
2018-05-16T01:52:36.362Z,95821.37
2018-05-16T01:55:06.053Z,95821.19
2018-05-16T01:57:35.581Z,95823.73
2018-05-16T02:00:04.438Z,95819.25
2018-05-16T02:02:33.969Z,95819.08
2018-05-16T02:05:03.522Z,95812.08
2018-05-16T02:07:33.230Z,95820.44
2018-05-16T02:10:02.772Z,95820.66
2018-05-16T02:12:32.330Z,95824.95
2018-05-16T02:15:01.851Z,95823.19
2018-05-16T02:17:31.360Z,95829.83
2018-05-16T02:20:00.934Z,95826.13
2018-05-16T02:22:30.858Z,95821.82
2018-05-16T02:25:00.408Z,95820.47
2018-05-16T02:27:29.924Z,95826.13
2018-05-16T02:29:59.438Z,95828.67
2018-05-16T02:32:28.986Z,95831.78
2018-05-16T02:34:58.513Z,95836.64
2018-05-16T02:37:28.112Z,95828.52
2018-05-16T02:39:57.788Z,95831.98
2018-05-16T02:42:27.710Z,95831.20
2018-05-16T02:44:57.636Z,95820.68
2018-05-16T02:47:27.278Z,95821.48
2018-05-16T02:49:56.941Z,95813.31
2018-05-16T02:52:26.880Z,95810.41
2018-05-16T02:54:56.387Z,95803.41
2018-05-16T02:57:25.926Z,95810.41
2018-05-16T02:59:55.567Z,95808.27
2018-05-16T03:02:25.097Z,95804.38
2018-05-16T03:04:55.044Z,95808.25
2018-05-16T03:07:24.556Z,95801.47
2018-05-16T03:09:54.132Z,95802.83
2018-05-16T03:12:23.654Z,95786.30
2018-05-16T03:14:53.177Z,95784.16
2018-05-16T03:17:22.701Z,95773.48
2018-05-16T03:19:52.278Z,95768.20
2018-05-16T03:22:21.813Z,95768.78
2018-05-16T03:24:51.352Z,95765.48
2018-05-16T03:27:21.324Z,95771.86
2018-05-16T03:29:50.846Z,95775.38
2018-05-16T03:32:20.362Z,95779.67
2018-05-16T03:34:50.048Z,95788.63
2018-05-16T03:37:19.574Z,95786.64
2018-05-16T03:39:49.084Z,95787.64
2018-05-16T03:42:18.652Z,95785.87
2018-05-16T03:44:48.192Z,95778.48
2018-05-16T03:47:17.696Z,95784.91
2018-05-16T03:49:47.224Z,95784.29
2018-05-16T03:52:17.148Z,95780.61
2018-05-16T03:54:47.097Z,95785.69
2018-05-16T03:57:33.428Z,95778.84
2018-05-16T04:00:19.654Z,95784.09
2018-05-16T04:03:06.406Z,95783.30
2018-05-16T04:05:35.946Z,95780.95
2018-05-16T04:08:05.476Z,95778.20
2018-05-16T04:10:35.410Z,95778.23
2018-05-16T04:13:04.961Z,95783.84
2018-05-16T04:15:34.495Z,95780.69
2018-05-16T04:18:04.017Z,95779.52
2018-05-16T04:20:33.977Z,95780.70
2018-05-16T04:23:03.702Z,95782.25
2018-05-16T04:25:33.261Z,95782.80
2018-05-16T04:28:02.817Z,95776.18
2018-05-16T04:30:32.363Z,95789.99
2018-05-16T04:33:02.282Z,95781.23
2018-05-16T04:35:32.290Z,95789.41
2018-05-16T04:38:01.992Z,95787.26
2018-05-16T04:40:31.513Z,95780.83
2018-05-16T04:43:01.432Z,95780.80
2018-05-16T04:45:31.345Z,95777.91
2018-05-16T04:48:01.307Z,95780.03
2018-05-16T04:50:30.780Z,95782.53
2018-05-16T04:53:00.328Z,95778.27
2018-05-16T04:55:29.860Z,95776.11
2018-05-16T04:57:59.374Z,95774.39
2018-05-16T05:00:29.457Z,95776.47
2018-05-16T05:02:59.540Z,95771.41
2018-05-16T05:05:29.282Z,95768.50
2018-05-16T05:07:58.813Z,95769.48
2018-05-16T05:10:28.332Z,95769.47
2018-05-16T05:12:58.267Z,95768.50
2018-05-16T05:15:27.786Z,95768.33
2018-05-16T05:17:57.337Z,95770.03
2018-05-16T05:20:26.902Z,95771.95
2018-05-16T05:22:56.439Z,95772.74
2018-05-16T05:25:26.203Z,95769.23
2018-05-16T05:27:56.122Z,95765.33
2018-05-16T05:30:25.742Z,95769.42
2018-05-16T05:32:55.388Z,95777.58
2018-05-16T05:35:24.915Z,95774.63
2018-05-16T05:37:54.536Z,95769.33
2018-05-16T05:40:24.477Z,95763.66
2018-05-16T05:42:54.038Z,95757.98
2018-05-16T05:45:23.569Z,95769.95
2018-05-16T05:47:53.499Z,95776.72
2018-05-16T05:50:23.039Z,95774.55
2018-05-16T05:52:52.554Z,95774.12
2018-05-16T05:55:22.070Z,95773.70
2018-05-16T05:57:51.588Z,95775.14
2018-05-16T06:00:21.139Z,95771.36
2018-05-16T06:02:50.701Z,95769.44
2018-05-16T06:05:20.312Z,95766.83
2018-05-16T06:07:50.390Z,95765.55
2018-05-16T06:10:19.968Z,95774.62
2018-05-16T06:12:49.946Z,95777.09
2018-05-16T06:15:19.682Z,95774.98
2018-05-16T06:17:49.607Z,95781.73
2018-05-16T06:20:19.567Z,95773.28
2018-05-16T06:22:49.107Z,95777.26
2018-05-16T06:25:18.625Z,95777.84
2018-05-16T06:27:48.559Z,95782.87
2018-05-16T06:30:18.612Z,95779.21
2018-05-16T06:32:48.182Z,95782.28
2018-05-16T06:35:17.853Z,95790.72
2018-05-16T06:37:47.374Z,95799.42
2018-05-16T06:40:16.900Z,95806.98
2018-05-16T06:42:46.816Z,95812.03
2018-05-16T06:45:16.760Z,95814.96
2018-05-16T06:47:46.790Z,95820.80
2018-05-16T06:50:16.343Z,95821.06
2018-05-16T06:52:46.260Z,95828.92
2018-05-16T06:55:16.205Z,95826.20
2018-05-16T06:57:45.725Z,95833.48
2018-05-16T07:00:15.242Z,95833.82
2018-05-16T07:02:44.762Z,95828.92
2018-05-16T07:05:14.503Z,95831.63
2018-05-16T07:07:44.444Z,95831.48
2018-05-16T07:10:14.043Z,95831.23
2018-05-16T07:12:43.967Z,95830.02
2018-05-16T07:15:13.497Z,95826.02
2018-05-16T07:17:43.019Z,95821.09
2018-05-16T07:20:12.553Z,95819.28
2018-05-16T07:22:42.186Z,95817.23
2018-05-16T07:25:11.851Z,95820.35
2018-05-16T07:27:41.381Z,95825.84
2018-05-16T07:30:11.393Z,95820.80
2018-05-16T07:32:40.933Z,95820.59
2018-05-16T07:35:10.463Z,95814.53
2018-05-16T07:37:40.012Z,95813.99
2018-05-16T07:40:09.559Z,95813.31
2018-05-16T07:42:39.113Z,95812.28
2018-05-16T07:45:08.650Z,95808.18
2018-05-16T07:47:38.573Z,95809.55
2018-05-16T07:50:08.113Z,95808.69
2018-05-16T07:52:37.640Z,95805.12
2018-05-16T07:55:07.185Z,95803.70
2018-05-16T07:57:37.140Z,95805.41
2018-05-16T08:00:06.912Z,95808.80
2018-05-16T08:02:36.833Z,95805.04
2018-05-16T08:05:06.355Z,95804.56
2018-05-16T08:07:35.892Z,95803.92
2018-05-16T08:10:05.459Z,95810.25
2018-05-16T08:12:34.751Z,95808.78
2018-05-16T08:15:04.305Z,95811.33
2018-05-16T08:17:33.836Z,95809.08
2018-05-16T08:20:03.369Z,95807.13
2018-05-16T08:22:33.353Z,95807.70
2018-05-16T08:25:02.901Z,95808.95
2018-05-16T08:27:32.467Z,95810.84
2018-05-16T08:30:02.011Z,95821.08
2018-05-16T08:32:32.077Z,95821.08
2018-05-16T08:35:01.645Z,95833.66
2018-05-16T08:37:31.263Z,95834.40
2018-05-16T08:40:00.799Z,95836.06
2018-05-16T08:42:30.372Z,95837.41
2018-05-16T08:44:59.972Z,95840.11
2018-05-16T08:47:29.499Z,95837.67
2018-05-16T08:49:59.042Z,95840.80
2018-05-16T08:52:28.588Z,95839.04
2018-05-16T08:54:58.843Z,95838.16
2018-05-16T08:57:28.375Z,95839.30
2018-05-16T08:59:57.918Z,95834.05
2018-05-16T09:02:27.835Z,95832.33
2018-05-16T09:04:57.779Z,95826.05
2018-05-16T09:07:27.310Z,95835.55
2018-05-16T09:09:56.856Z,95838.23
2018-05-16T09:12:26.772Z,95839.17
2018-05-16T09:14:56.877Z,95838.39
2018-05-16T09:17:26.795Z,95841.71
2018-05-16T09:19:56.718Z,95845.55
2018-05-16T09:22:26.864Z,95844.22
2018-05-16T09:24:56.394Z,95846.33
2018-05-16T09:27:25.997Z,95846.98
2018-05-16T09:29:55.525Z,95845.41
2018-05-16T09:32:25.060Z,95842.89
2018-05-16T09:34:55.041Z,95846.02
2018-05-16T09:37:24.639Z,95848.56
2018-05-16T09:39:54.164Z,95843.97
2018-05-16T09:42:23.724Z,95849.84
2018-05-16T09:44:53.254Z,95847.72
2018-05-16T09:47:22.827Z,95846.32
2018-05-16T09:49:52.340Z,95852.14
2018-05-16T09:52:21.870Z,95852.63
2018-05-16T09:54:51.415Z,95852.65
2018-05-16T09:57:21.245Z,95847.77
2018-05-16T09:59:51.187Z,95850.36
2018-05-16T10:02:20.723Z,95849.81
2018-05-16T10:04:50.258Z,95851.38
2018-05-16T10:07:19.810Z,95850.77
2018-05-16T10:09:50.441Z,95854.97
2018-05-16T10:12:20.448Z,95853.22
2018-05-16T10:14:49.970Z,95853.70
2018-05-16T10:17:19.160Z,95855.02
2018-05-16T10:19:48.734Z,95860.47
2018-05-16T10:22:18.704Z,95861.25
2018-05-16T10:24:48.240Z,95860.03
2018-05-16T10:27:17.772Z,95863.19
2018-05-16T10:30:38.242Z,95868.02
2018-05-16T10:33:07.753Z,95871.53
2018-05-16T10:35:37.301Z,95871.41
2018-05-16T10:38:06.818Z,95875.55
2018-05-16T10:40:36.384Z,95877.53
2018-05-16T10:43:05.913Z,95881.41
2018-05-16T10:45:35.822Z,95877.44
2018-05-16T10:48:05.750Z,95881.02
2018-05-16T10:50:35.672Z,95883.03
2018-05-16T10:53:05.185Z,95890.78
2018-05-16T10:55:34.702Z,95891.17
2018-05-16T10:58:04.245Z,95891.92
2018-05-16T11:00:33.807Z,95889.66
2018-05-16T11:03:03.349Z,95893.22
2018-05-16T11:05:32.875Z,95890.98
2018-05-16T11:08:02.185Z,95886.88
2018-05-16T11:10:32.134Z,95898.74
2018-05-16T11:13:01.853Z,95901.34
2018-05-16T11:15:31.439Z,95896.61
2018-05-16T11:18:00.966Z,95904.72
2018-05-16T11:20:30.487Z,95902.07
2018-05-16T11:23:01.736Z,95903.27
2018-05-16T11:25:31.331Z,95902.22
2018-05-16T11:28:01.624Z,95907.11
2018-05-16T11:30:31.741Z,95905.81
2018-05-16T11:33:01.784Z,95903.27
2018-05-16T11:35:31.326Z,95898.80
2018-05-16T11:38:02.016Z,95900.56
2018-05-16T11:40:31.630Z,95902.14
2018-05-16T11:43:01.138Z,95904.40
2018-05-16T11:45:30.696Z,95899.35
2018-05-16T11:48:00.834Z,95894.08
2018-05-16T11:50:30.756Z,95895.16
2018-05-16T11:53:00.670Z,95897.81
2018-05-16T11:55:30.600Z,95897.53
2018-05-16T11:58:00.106Z,95906.47
2018-05-16T12:00:29.298Z,95901.55
2018-05-16T12:02:58.921Z,95903.76
2018-05-16T12:05:28.550Z,95901.73
2018-05-16T12:07:58.070Z,95907.78
2018-05-16T12:10:27.588Z,95909.53
2018-05-16T12:12:59.316Z,95909.68
2018-05-16T12:15:28.838Z,95910.67
2018-05-16T12:17:58.364Z,95911.08
2018-05-16T12:20:27.948Z,95911.03
2018-05-16T12:22:57.540Z,95912.88
2018-05-16T12:25:27.082Z,95908.77
2018-05-16T12:27:56.618Z,95907.24
2018-05-16T12:30:26.127Z,95909.44
2018-05-16T12:32:55.638Z,95914.52
2018-05-16T12:35:25.179Z,95909.24
2018-05-16T12:37:54.883Z,95901.84
2018-05-16T12:40:24.394Z,95908.30
2018-05-16T12:43:10.883Z,95909.55
2018-05-16T12:45:40.390Z,95911.89
2018-05-16T12:48:09.917Z,95911.16
2018-05-16T12:50:39.491Z,95907.85
2018-05-16T12:53:09.486Z,95908.47
2018-05-16T12:55:39.495Z,95912.70
2018-05-16T12:58:09.267Z,95914.31
2018-05-16T13:00:38.774Z,95910.02
2018-05-16T13:03:08.292Z,95909.97
2018-05-16T13:05:37.831Z,95914.39
2018-05-16T13:08:09.545Z,95920.19
2018-05-16T13:10:39.064Z,95922.66
2018-05-16T13:13:08.647Z,95918.70
2018-05-16T13:15:38.165Z,95921.98
2018-05-16T13:18:07.725Z,95919.92
2018-05-16T13:20:37.455Z,95921.29
2018-05-16T13:23:07.034Z,95921.27
2018-05-16T13:25:36.962Z,95915.11
2018-05-16T13:28:06.151Z,95920.48
2018-05-16T13:30:36.080Z,95918.52
2018-05-16T13:33:05.595Z,95915.72
2018-05-16T13:35:35.121Z,95911.43
2018-05-16T13:38:04.689Z,95910.69
2018-05-16T13:40:34.693Z,95912.41
2018-05-16T13:43:04.611Z,95913.27
2018-05-16T13:45:34.585Z,95912.80
2018-05-16T13:48:04.082Z,95911.43
2018-05-16T13:50:33.673Z,95918.40
2018-05-16T13:53:03.962Z,95919.66
2018-05-16T13:55:33.895Z,95919.48
2018-05-16T13:58:03.814Z,95915.97
2018-05-16T14:00:33.536Z,95913.94
2018-05-16T14:03:03.056Z,95917.62
2018-05-16T14:05:32.582Z,95913.35
2018-05-16T14:08:02.128Z,95917.34
2018-05-16T14:10:32.072Z,95916.20
2018-05-16T14:13:01.616Z,95914.71
2018-05-16T14:15:31.136Z,95921.54
2018-05-16T14:18:00.648Z,95914.34
2018-05-16T14:20:30.218Z,95913.36
2018-05-16T14:22:59.782Z,95914.00
2018-05-16T14:25:29.688Z,95915.17
2018-05-16T14:27:59.619Z,95919.05
2018-05-16T14:30:29.140Z,95920.23
2018-05-16T14:32:58.648Z,95914.31
2018-05-16T14:35:28.162Z,95914.59
2018-05-16T14:37:57.684Z,95918.77
2018-05-16T14:40:27.204Z,95921.64
2018-05-16T14:42:56.832Z,95919.76
2018-05-16T14:45:26.926Z,95924.09
2018-05-16T14:47:56.508Z,95920.54
2018-05-16T14:50:26.178Z,95924.55
2018-05-16T14:52:56.121Z,95922.64
2018-05-16T14:55:25.656Z,95926.82
2018-05-16T14:57:55.128Z,95925.61
2018-05-16T15:00:24.638Z,95921.32
2018-05-16T15:02:54.154Z,95918.38
2018-05-16T15:05:23.682Z,95924.48
2018-05-16T15:07:53.215Z,95922.92
2018-05-16T15:10:22.740Z,95925.59
2018-05-16T15:12:52.650Z,95932.02
2018-05-16T15:15:22.583Z,95926.46
2018-05-16T15:17:52.107Z,95924.34
2018-05-16T15:20:21.635Z,95922.63
2018-05-16T15:22:51.152Z,95923.25
2018-05-16T15:25:20.664Z,95925.44
2018-05-16T15:27:50.178Z,95923.69
2018-05-16T15:30:19.711Z,95926.11
2018-05-16T15:32:49.633Z,95922.58
2018-05-16T15:35:19.166Z,95923.25
2018-05-16T15:37:48.718Z,95921.10
2018-05-16T15:40:18.244Z,95925.29
2018-05-16T15:42:48.235Z,95925.52
2018-05-16T15:45:17.756Z,95920.23
2018-05-16T15:47:47.768Z,95921.09
2018-05-16T15:50:17.808Z,95925.20
2018-05-16T15:52:47.319Z,95915.81
2018-05-16T15:55:16.852Z,95920.31
2018-05-16T15:57:46.153Z,95917.06
2018-05-16T16:00:15.663Z,95916.44
2018-05-16T16:02:45.175Z,95916.83
2018-05-16T16:05:14.705Z,95913.27
2018-05-16T16:07:44.233Z,95917.03
2018-05-16T16:10:14.211Z,95909.67
2018-05-16T16:12:43.727Z,95910.91
2018-05-16T16:15:13.255Z,95911.35
2018-05-16T16:17:43.175Z,95914.02
2018-05-16T16:20:13.117Z,95909.44
2018-05-16T16:22:42.634Z,95909.23
2018-05-16T16:25:12.166Z,95905.56
2018-05-16T16:27:41.751Z,95907.72
2018-05-16T16:30:11.280Z,95909.36
2018-05-16T16:32:40.918Z,95914.33
2018-05-16T16:35:10.843Z,95916.83
2018-05-16T16:37:40.803Z,95913.69
2018-05-16T16:40:10.366Z,95915.30
2018-05-16T16:42:40.296Z,95917.91
2018-05-16T16:45:09.833Z,95917.97
2018-05-16T16:47:39.423Z,95921.02
2018-05-16T16:50:08.693Z,95919.72
2018-05-16T16:52:38.333Z,95925.98
2018-05-16T16:55:07.866Z,95925.67
2018-05-16T16:57:37.391Z,95924.66
2018-05-16T17:00:06.733Z,95921.53
2018-05-16T17:02:36.370Z,95922.78
2018-05-16T17:05:05.557Z,95919.53
2018-05-16T17:07:35.084Z,95920.98
2018-05-16T17:10:04.066Z,95921.61
2018-05-16T17:12:33.690Z,95927.09
2018-05-16T17:15:03.325Z,95920.20
2018-05-16T17:17:32.879Z,95916.64
2018-05-16T17:20:02.406Z,95925.80
2018-05-16T17:22:31.971Z,95931.74
2018-05-16T17:25:01.472Z,95922.31
2018-05-16T17:27:31.397Z,95934.37
2018-05-16T17:30:00.903Z,95931.04
2018-05-16T17:32:30.432Z,95931.94
2018-05-16T17:35:00.141Z,95933.50
2018-05-16T17:37:29.662Z,95933.08
2018-05-16T17:39:59.244Z,95929.39
2018-05-16T17:42:28.769Z,95930.80
2018-05-16T17:44:57.938Z,95933.20
2018-05-16T17:47:27.444Z,95933.03
2018-05-16T17:49:56.992Z,95935.47
2018-05-16T17:52:26.553Z,95936.67
2018-05-16T17:54:56.095Z,95941.02
2018-05-16T17:57:25.608Z,95945.19
2018-05-16T17:59:55.141Z,95941.31
2018-05-16T18:02:24.669Z,95940.55
2018-05-16T18:04:54.614Z,95943.31
2018-05-16T18:07:24.202Z,95947.91
2018-05-16T18:09:53.749Z,95945.63
2018-05-16T18:12:23.294Z,95948.17
2018-05-16T18:18:01.728Z,95946.70
2018-05-16T18:20:31.653Z,95950.57
2018-05-16T18:23:01.653Z,95949.76
2018-05-16T18:25:31.177Z,95953.86
2018-05-16T18:28:01.213Z,95951.41
2018-05-16T18:30:30.737Z,95949.38
2018-05-16T18:33:00.275Z,95955.43
2018-05-16T18:35:29.859Z,95959.14
2018-05-16T18:37:59.419Z,95957.93
2018-05-16T18:40:29.141Z,95960.35
2018-05-16T18:42:58.673Z,95958.66
2018-05-16T18:45:28.839Z,95957.91
2018-05-16T18:47:58.347Z,95961.28
2018-05-16T18:50:27.894Z,95963.57
2018-05-16T18:52:57.411Z,95971.41
2018-05-16T18:55:26.937Z,95970.05
2018-05-16T18:57:56.640Z,95977.48
2018-05-16T19:00:26.176Z,95983.55
2018-05-16T19:02:55.684Z,95991.47
2018-05-16T19:05:25.312Z,95994.38
2018-05-16T19:07:55.352Z,96002.17
2018-05-16T19:10:24.861Z,95995.70
2018-05-16T19:12:54.389Z,95999.50
2018-05-16T19:15:23.928Z,95999.24
2018-05-16T19:17:53.443Z,96002.61
2018-05-16T19:20:23.368Z,96005.52
2018-05-16T19:22:53.285Z,96002.17
2018-05-16T19:25:23.246Z,96008.59
2018-05-16T19:27:52.765Z,96015.63
2018-05-16T19:30:22.361Z,96021.09
2018-05-16T19:32:51.943Z,96021.69
2018-05-16T19:35:21.476Z,96023.39
2018-05-16T19:37:51.018Z,96023.83
2018-05-16T19:40:20.945Z,96028.47
2018-05-16T19:42:50.889Z,96031.06
2018-05-16T19:45:20.391Z,96027.06
2018-05-16T19:47:49.949Z,96033.08
2018-05-16T19:50:19.481Z,96031.27
2018-05-16T19:52:49.423Z,96019.72
2018-05-16T19:55:19.531Z,96025.99
2018-05-16T19:57:49.059Z,96030.31
2018-05-16T20:00:18.595Z,96022.06
2018-05-16T20:02:48.154Z,96036.16
2018-05-16T20:05:18.429Z,96033.12
2018-05-16T20:07:47.941Z,96027.93
2018-05-16T20:10:17.502Z,96024.76
2018-05-16T20:12:47.265Z,96029.52
2018-05-16T20:15:16.795Z,96028.89
2018-05-16T20:17:46.716Z,96041.19
2018-05-16T20:20:16.241Z,96033.81
2018-05-16T20:22:45.779Z,96036.95
2018-05-16T20:25:15.954Z,96036.36
2018-05-16T20:27:45.490Z,96037.17
2018-05-16T20:30:15.088Z,96030.73
2018-05-16T20:32:44.660Z,96043.60
2018-05-16T20:35:14.584Z,96044.83
2018-05-16T20:37:44.523Z,96037.78
2018-05-16T20:40:14.051Z,96037.73
2018-05-16T20:42:43.587Z,96037.16
2018-05-16T20:45:13.166Z,96033.48
2018-05-16T20:47:43.245Z,96034.81
2018-05-16T20:50:12.797Z,96037.04
2018-05-16T20:52:42.343Z,96037.95
2018-05-16T20:55:12.267Z,96039.09
2018-05-16T20:57:42.193Z,96038.73
2018-05-16T21:00:11.709Z,96033.89
2018-05-16T21:02:41.326Z,96046.78
2018-05-16T21:05:11.041Z,96040.38
2018-05-16T21:07:40.685Z,96045.16
2018-05-16T21:10:10.205Z,96037.68
2018-05-16T21:12:40.145Z,96037.24
2018-05-16T21:15:09.665Z,96041.70
2018-05-16T21:17:39.190Z,96042.48
2018-05-16T21:20:08.738Z,96052.41
2018-05-16T21:22:38.559Z,96045.81
2018-05-16T21:25:08.466Z,96052.94
2018-05-16T21:27:38.413Z,96058.78
2018-05-16T21:30:07.947Z,96067.56
2018-05-16T21:32:37.490Z,96070.52
2018-05-16T21:35:07.740Z,96079.50
2018-05-16T21:37:37.302Z,96086.14
2018-05-16T21:40:06.882Z,96088.92
2018-05-16T21:42:36.398Z,96083.98
2018-05-16T21:45:05.672Z,96089.20
2018-05-16T21:47:35.468Z,96087.03
2018-05-16T21:50:05.008Z,96086.88
2018-05-16T21:52:34.674Z,96084.61
2018-05-16T21:55:04.303Z,96093.55
2018-05-16T21:57:34.064Z,96086.14
2018-05-16T22:00:03.376Z,96084.54
2018-05-16T22:02:32.922Z,96083.75
2018-05-16T22:05:02.540Z,96086.48
2018-05-16T22:07:32.086Z,96083.52
2018-05-16T22:10:02.424Z,96077.11
2018-05-16T22:12:31.986Z,96075.37
2018-05-16T22:15:02.257Z,96079.70
2018-05-16T22:20:01.619Z,96081.47
2018-05-16T22:22:31.162Z,96076.56
2018-05-16T22:25:00.696Z,96071.91
2018-05-16T22:27:30.287Z,96070.92
2018-05-16T22:29:59.724Z,96074.06
2018-05-16T22:32:34.977Z,96079.72
2018-05-16T22:35:09.399Z,96083.84
2018-05-16T22:37:44.806Z,96083.05
2018-05-16T22:40:19.793Z,96082.99
2018-05-16T22:42:48.439Z,96075.63
2018-05-16T22:45:22.463Z,96081.25
2018-05-16T22:47:52.407Z,96082.28
2018-05-16T22:50:21.940Z,96078.98
2018-05-16T22:52:51.468Z,96076.64
2018-05-16T22:55:21.406Z,96083.28
2018-05-16T22:57:51.325Z,96070.61
2018-05-16T23:00:24.579Z,96073.72
2018-05-16T23:02:54.121Z,96066.22
2018-05-16T23:05:23.893Z,96058.48
2018-05-16T23:07:53.432Z,96056.34
2018-05-16T23:10:23.377Z,96061.83
2018-05-16T23:12:52.915Z,96061.48
2018-05-16T23:15:22.441Z,96062.04
2018-05-16T23:21:27.961Z,96068.13
2018-05-16T23:23:57.516Z,96065.59
2018-05-16T23:26:27.077Z,96064.04
2018-05-16T23:28:56.597Z,96058.97
2018-05-16T23:31:26.118Z,96055.64
2018-05-16T23:33:55.656Z,96055.05
2018-05-16T23:36:25.592Z,96052.90
2018-05-16T23:38:56.694Z,96045.87
2018-05-16T23:41:26.256Z,96052.16
2018-05-16T23:43:55.784Z,96053.34
2018-05-16T23:46:25.029Z,96047.33
2018-05-16T23:48:54.968Z,96056.91
2018-05-16T23:51:24.494Z,96053.00
2018-05-16T23:53:54.104Z,96054.37
2018-05-16T23:56:23.615Z,96062.56
2018-05-16T23:58:53.136Z,96068.63
